Manley, NE (68403)

10:38 PM CST on December 08, 2016 (GMT -0600)
Southridge | | Change Station

Elev 1083 ft 40.99 °N, 96.15 °W | Updated 59 seconds ago

Clear
Clear
13.0 °F
Feels Like 13 °F
N
0.0
Wind Variable Wind from NNW
Gusts 0.0 mph

Today
High -- | Low -- °F
--% Chance of Precip.
Yesterday
High -- | Low -- °F
Precip. -- in
Pressure 30.63 in
Visibility 10.0 miles
Clouds Clear
Windchill 13 °F
Dew Point 6 °F
Humidity 74%
Rainfall 0.00 in
Snow Depth Not available.
7:37 AM 4:56 PM
Waxing Gibbous, 70% visible
METAR KPMV 090415Z AUTO 30004KT 10SM CLR M10/M15 A3063 RMK AO2 T11041153
Pressure 30.63 in
Visibility 10.0 miles
Clouds Clear
Windchill 13 °F
Dew Point 6 °F
Humidity 74%
Rainfall 0.00 in
Snow Depth Not available.
7:37 AM 4:56 PM
Waxing Gibbous, 70% visible
METAR KPMV 090415Z AUTO 30004KT 10SM CLR M10/M15 A3063 RMK AO2 T11041153

10-Day Weather Forecast

Almanac

Astronomy

Dec. 08, 2016 Rise Set
Actual Time
Civil Twilight
Nautical Twilight
Astronomical Twilight
Moon
Length of Visible Light
Length of Day
Tomorrow will be .
, % of the Moon is Illuminated

Today's Extremes

State Highs State Lows

Community

WunderPhotos

Upload Photos

1,956,370 photos uploaded!

WunderBlog® & News

Nearby

Air Quality

  Air Quality AQ Index Pollutant
Not available.

Snow Depth

Station Depth Elevation

Earthquake Activity

City Distance Mag. Time & Date
Minimum magnitude displayed is 2.5.

Coastal Water Temperatures

Place Temperature

Stations

Nearby Weather Stations

Station Location Temp. Windchill Dew Point Humidity Wind Precip. Elev Updated Type
                   

Watches & Warnings

There are currently no watches in effect.